createdAt,value
2023-02-27T00:00:42.822Z,-2.03
2023-02-27T00:01:31.432Z,-1.97
2023-02-27T00:02:18.566Z,-1.94
2023-02-27T00:03:05.733Z,-1.89
2023-02-27T00:03:52.863Z,-1.88
2023-02-27T00:04:40.064Z,-1.91
2023-02-27T00:05:27.133Z,-1.92
2023-02-27T00:06:14.217Z,-1.91
2023-02-27T00:07:01.327Z,-1.91
2023-02-27T00:07:48.502Z,-1.86
2023-02-27T00:08:35.512Z,-1.88
2023-02-27T00:09:22.615Z,-1.86
2023-02-27T00:10:10.793Z,-1.83
2023-02-27T00:10:57.883Z,-1.82
2023-02-27T00:11:45.413Z,-1.81
2023-02-27T00:12:37.924Z,-1.80
2023-02-27T00:13:24.974Z,-1.71
2023-02-27T00:14:12.034Z,-1.47
2023-02-27T00:14:59.020Z,-1.47
2023-02-27T00:15:47.617Z,-1.47
2023-02-27T00:16:34.866Z,-1.47
2023-02-27T00:17:21.973Z,-1.49
2023-02-27T00:18:08.957Z,-1.48
2023-02-27T00:18:57.425Z,-1.45
2023-02-27T00:19:44.497Z,-1.47
2023-02-27T00:20:32.612Z,-1.55
2023-02-27T00:21:19.743Z,-1.55
2023-02-27T00:22:06.740Z,-1.38
2023-02-27T00:22:53.902Z,-1.36
2023-02-27T00:23:40.912Z,-1.35
2023-02-27T00:24:28.080Z,-1.41
2023-02-27T00:25:15.807Z,-1.32
2023-02-27T00:26:02.891Z,-1.33
2023-02-27T00:26:49.982Z,-1.27
2023-02-27T00:27:37.385Z,-1.17
2023-02-27T00:28:24.458Z,-1.22
2023-02-27T00:29:11.887Z,-1.18
2023-02-27T00:29:59.550Z,-1.18
2023-02-27T00:30:46.657Z,-1.15
2023-02-27T00:31:34.963Z,-1.05
2023-02-27T00:32:22.011Z,-1.09
2023-02-27T00:33:09.424Z,-1.07
2023-02-27T00:33:56.721Z,-1.05
2023-02-27T00:34:44.019Z,-1.10
2023-02-27T00:35:31.229Z,-1.08
2023-02-27T00:36:18.206Z,-1.13
2023-02-27T00:37:05.214Z,-1.16
2023-02-27T00:37:52.301Z,-1.15
2023-02-27T00:38:39.284Z,-1.12
2023-02-27T00:39:26.318Z,-1.14
2023-02-27T00:40:13.612Z,-1.10
2023-02-27T00:41:00.691Z,-1.11
2023-02-27T00:41:47.724Z,-1.07
2023-02-27T00:42:35.321Z,-1.04
2023-02-27T00:43:22.646Z,-1.08
2023-02-27T00:44:09.660Z,-1.14
2023-02-27T00:44:56.698Z,-1.08
2023-02-27T00:45:43.832Z,-1.06
2023-02-27T00:46:30.871Z,-1.01
2023-02-27T00:47:17.829Z,-0.99
2023-02-27T00:48:04.846Z,-1.03
2023-02-27T00:48:52.235Z,-0.95
2023-02-27T00:49:39.190Z,-0.92
2023-02-27T00:50:26.267Z,-0.91
2023-02-27T00:51:13.286Z,-0.89
2023-02-27T00:52:00.286Z,-0.89
2023-02-27T00:52:47.307Z,-0.85
2023-02-27T00:53:34.358Z,-0.88
2023-02-27T00:54:21.407Z,-0.84
2023-02-27T00:55:09.297Z,-0.89
2023-02-27T00:55:56.482Z,-0.96
2023-02-27T00:56:43.455Z,-0.94
2023-02-27T00:57:31.026Z,-0.96
2023-02-27T00:58:18.049Z,-0.96
2023-02-27T00:59:05.005Z,-1.00
2023-02-27T00:59:52.281Z,-0.97
2023-02-27T01:00:39.609Z,-0.94
2023-02-27T01:01:26.938Z,-1.00
2023-02-27T01:02:14.312Z,-1.05
2023-02-27T01:03:01.437Z,-1.03
2023-02-27T01:03:48.429Z,-1.01
2023-02-27T01:04:35.567Z,-0.96
2023-02-27T01:05:22.781Z,-0.87
2023-02-27T01:06:09.799Z,-0.90
2023-02-27T01:06:56.894Z,-0.93
2023-02-27T01:07:43.964Z,-1.07
2023-02-27T01:08:30.982Z,-1.03
2023-02-27T01:09:17.942Z,-1.11
2023-02-27T01:10:06.322Z,-1.15
2023-02-27T01:10:55.692Z,-1.13
2023-02-27T01:11:42.771Z,-1.16
2023-02-27T01:12:29.854Z,-1.11
2023-02-27T01:13:16.907Z,-1.06
2023-02-27T01:14:04.023Z,-1.13
2023-02-27T01:14:51.263Z,-1.09
2023-02-27T01:15:38.367Z,-1.12
2023-02-27T01:16:25.565Z,-0.98
2023-02-27T01:17:12.662Z,-0.99
2023-02-27T01:18:00.173Z,-0.97
2023-02-27T01:18:47.224Z,-0.93
2023-02-27T01:19:34.360Z,-0.98
2023-02-27T01:20:21.936Z,-0.99
2023-02-27T01:21:09.128Z,-0.99
2023-02-27T01:21:56.277Z,-0.96
2023-02-27T01:22:43.443Z,-0.95
2023-02-27T01:23:30.604Z,-0.93
2023-02-27T01:24:20.034Z,-1.01
2023-02-27T01:25:07.723Z,-1.05
2023-02-27T01:25:54.692Z,-1.06
2023-02-27T01:26:41.997Z,-1.08
2023-02-27T01:27:29.033Z,-1.03
2023-02-27T01:28:17.255Z,-1.06
2023-02-27T01:29:06.410Z,-1.09
2023-02-27T01:29:53.666Z,-1.11
2023-02-27T01:30:41.709Z,-1.16
2023-02-27T01:31:29.021Z,-1.10
2023-02-27T01:32:16.689Z,-1.06
2023-02-27T01:33:03.827Z,-1.03
2023-02-27T01:33:51.017Z,-1.04
2023-02-27T01:34:38.095Z,-1.06
2023-02-27T01:35:25.204Z,-1.13
2023-02-27T01:36:12.357Z,-1.17
2023-02-27T01:36:59.367Z,-1.20
2023-02-27T01:37:46.417Z,-1.29
2023-02-27T01:38:33.484Z,-1.34
2023-02-27T01:39:20.901Z,-1.27
2023-02-27T01:40:09.114Z,-1.24
2023-02-27T01:40:57.537Z,-1.26
2023-02-27T01:41:44.684Z,-1.31
2023-02-27T01:42:31.787Z,-1.30
2023-02-27T01:43:20.455Z,-1.26
2023-02-27T01:44:10.681Z,-1.25
2023-02-27T01:45:12.893Z,-1.22
2023-02-27T01:46:01.283Z,-1.24
2023-02-27T01:46:48.355Z,-1.32
2023-02-27T01:47:36.202Z,-1.32
2023-02-27T01:48:35.552Z,-1.30
2023-02-27T01:49:28.173Z,-1.30
2023-02-27T01:50:16.066Z,-1.37
2023-02-27T01:51:08.028Z,-1.45
2023-02-27T01:52:03.338Z,-1.45
2023-02-27T01:52:55.102Z,-1.43
2023-02-27T01:53:44.302Z,-1.41
2023-02-27T01:54:32.929Z,-1.39
2023-02-27T01:55:20.638Z,-1.38
2023-02-27T01:56:20.634Z,-1.41
2023-02-27T01:57:08.224Z,-1.38
2023-02-27T01:57:55.359Z,-1.39
2023-02-27T01:58:43.112Z,-1.37
2023-02-27T01:59:30.593Z,-1.35
2023-02-27T02:00:18.002Z,-1.36
2023-02-27T02:01:05.524Z,-1.45
2023-02-27T02:01:52.742Z,-1.40
2023-02-27T02:02:43.072Z,-1.37
2023-02-27T02:03:50.802Z,-1.45
2023-02-27T02:04:39.974Z,-1.39
2023-02-27T02:05:27.324Z,-1.28
2023-02-27T02:06:14.394Z,-1.37
2023-02-27T02:07:11.805Z,-1.45
2023-02-27T02:07:59.242Z,-1.51
2023-02-27T02:08:48.457Z,-1.62
2023-02-27T02:09:39.424Z,-1.53
2023-02-27T02:10:27.422Z,-1.57
2023-02-27T02:11:16.383Z,-1.55
2023-02-27T02:12:04.683Z,-1.55
2023-02-27T02:12:51.808Z,-1.56
2023-02-27T02:13:40.943Z,-1.58
2023-02-27T02:14:28.000Z,-1.68
2023-02-27T02:15:15.283Z,-1.65
2023-02-27T02:16:40.534Z,-1.66
2023-02-27T02:17:49.431Z,-1.70
2023-02-27T02:19:11.323Z,-1.75
2023-02-27T02:20:01.258Z,-1.79
2023-02-27T02:21:06.878Z,-1.78
2023-02-27T02:22:05.587Z,-1.75
2023-02-27T02:23:01.904Z,-1.76
2023-02-27T02:23:54.832Z,-1.79
2023-02-27T02:25:00.536Z,-1.81
2023-02-27T02:26:12.036Z,-1.82
2023-02-27T02:27:35.443Z,-1.81
2023-02-27T02:28:36.053Z,-1.89
2023-02-27T02:29:53.161Z,-1.90
2023-02-27T02:31:01.097Z,-1.85
2023-02-27T02:32:06.587Z,-1.93
2023-02-27T02:33:27.382Z,-1.81
2023-02-27T02:34:26.638Z,-1.95
2023-02-27T02:35:41.184Z,-1.94
2023-02-27T02:37:01.935Z,-1.89
2023-02-27T02:38:07.163Z,-1.93
2023-02-27T02:39:03.170Z,-1.92
2023-02-27T02:40:05.390Z,-1.99
2023-02-27T02:41:08.938Z,-2.03
2023-02-27T02:42:03.696Z,-2.09
2023-02-27T02:43:03.606Z,-2.17
2023-02-27T02:44:14.642Z,-2.18
2023-02-27T02:45:01.450Z,-2.15
2023-02-27T02:46:13.993Z,-2.07
2023-02-27T02:47:16.403Z,-2.07
2023-02-27T02:48:33.322Z,-2.08
2023-02-27T02:49:27.112Z,-2.14
2023-02-27T02:50:28.193Z,-2.12
2023-02-27T02:51:33.185Z,-2.17
2023-02-27T02:52:48.003Z,-2.27
2023-02-27T02:53:57.250Z,-2.31
2023-02-27T02:54:50.404Z,-2.28
2023-02-27T02:55:42.974Z,-2.29
2023-02-27T02:57:02.224Z,-2.39
2023-02-27T02:58:07.422Z,-2.47
2023-02-27T02:59:29.522Z,-2.59
2023-02-27T03:00:19.756Z,-2.59
2023-02-27T03:01:15.675Z,-2.52
2023-02-27T03:02:09.696Z,-2.49
2023-02-27T03:03:00.923Z,-2.51
2023-02-27T03:04:10.936Z,-2.53
2023-02-27T03:05:01.276Z,-2.50
2023-02-27T03:05:57.392Z,-2.47
2023-02-27T03:07:26.225Z,-2.51
2023-02-27T03:08:17.712Z,-2.51
2023-02-27T03:09:19.092Z,-2.62
2023-02-27T03:10:16.120Z,-2.57
2023-02-27T03:11:04.690Z,-2.56
2023-02-27T03:11:52.719Z,-2.70
2023-02-27T03:12:42.137Z,-2.81
2023-02-27T03:13:38.911Z,-2.81
2023-02-27T03:14:31.395Z,-2.80
2023-02-27T03:15:39.079Z,-2.78
2023-02-27T03:16:30.355Z,-2.72
2023-02-27T03:17:23.850Z,-2.71
2023-02-27T03:18:18.874Z,-2.70
2023-02-27T03:19:14.705Z,-2.73
2023-02-27T03:20:07.772Z,-2.72
2023-02-27T03:21:05.903Z,-2.73
2023-02-27T03:22:10.282Z,-2.78
2023-02-27T03:23:00.344Z,-2.79
2023-02-27T03:23:48.751Z,-2.78
2023-02-27T03:24:38.269Z,-2.78
2023-02-27T03:25:26.854Z,-2.99
2023-02-27T03:26:19.949Z,-3.05
2023-02-27T03:27:08.682Z,-3.15
2023-02-27T03:27:59.138Z,-3.06
2023-02-27T03:28:59.997Z,-3.17
2023-02-27T03:29:58.859Z,-3.16
2023-02-27T03:31:01.831Z,-3.11
2023-02-27T03:31:56.982Z,-3.07
2023-02-27T03:32:53.978Z,-3.35
2023-02-27T03:33:56.009Z,-3.34
2023-02-27T03:34:43.525Z,-3.30
2023-02-27T03:35:41.229Z,-3.31
2023-02-27T03:37:06.811Z,-3.39
2023-02-27T03:38:06.856Z,-3.32
2023-02-27T03:39:05.956Z,-3.33
2023-02-27T03:40:06.702Z,-3.25
2023-02-27T03:41:14.646Z,-3.31
2023-02-27T03:42:14.790Z,-3.28
2023-02-27T03:43:32.477Z,-3.24
2023-02-27T03:44:37.726Z,-3.23
2023-02-27T03:45:38.825Z,-3.20
2023-02-27T03:46:27.386Z,-3.32
2023-02-27T03:47:14.426Z,-3.32
2023-02-27T03:48:02.505Z,-3.33
2023-02-27T03:48:49.646Z,-3.25
2023-02-27T03:49:36.657Z,-3.29
2023-02-27T03:50:23.708Z,-3.35
2023-02-27T03:51:15.251Z,-3.34
2023-02-27T03:52:02.224Z,-3.42
2023-02-27T03:52:49.332Z,-3.44
2023-02-27T03:53:46.227Z,-3.49
2023-02-27T03:54:37.460Z,-3.53
2023-02-27T03:55:33.623Z,-3.46
2023-02-27T03:56:25.828Z,-3.54
2023-02-27T03:57:15.475Z,-3.52
2023-02-27T03:58:02.712Z,-3.45
2023-02-27T03:58:50.063Z,-3.46
2023-02-27T03:59:38.275Z,-3.60
2023-02-27T04:00:26.691Z,-3.68
2023-02-27T04:01:13.688Z,-3.80
2023-02-27T04:02:03.858Z,-3.85
2023-02-27T04:02:52.469Z,-3.75
2023-02-27T04:03:46.702Z,-3.65
2023-02-27T04:04:34.071Z,-3.64
2023-02-27T04:05:21.633Z,-3.62
2023-02-27T04:06:27.346Z,-3.56
2023-02-27T04:07:26.752Z,-3.55
2023-02-27T04:08:51.958Z,-3.65
2023-02-27T04:10:00.476Z,-3.57
2023-02-27T04:11:13.037Z,-3.58
2023-02-27T04:12:24.226Z,-3.60
2023-02-27T04:13:19.847Z,-3.87
2023-02-27T04:14:20.267Z,-3.84
2023-02-27T04:15:31.687Z,-3.71
2023-02-27T04:16:38.156Z,-3.73
2023-02-27T04:17:27.201Z,-3.65
2023-02-27T04:18:48.177Z,-3.87
2023-02-27T04:19:38.286Z,-3.88
2023-02-27T04:21:22.537Z,-3.92
2023-02-27T04:22:34.191Z,-3.72
2023-02-27T04:23:46.017Z,-3.63
2023-02-27T04:24:38.084Z,-3.57
2023-02-27T04:25:33.052Z,-3.80
2023-02-27T04:26:34.026Z,-3.88
2023-02-27T04:27:36.411Z,-3.96
2023-02-27T04:28:44.989Z,-3.85
2023-02-27T04:29:43.159Z,-3.80
2023-02-27T04:30:56.280Z,-3.66
2023-02-27T04:32:25.908Z,-3.66
2023-02-27T04:33:31.850Z,-3.64
2023-02-27T04:34:43.948Z,-3.65
2023-02-27T04:35:37.306Z,-3.54
2023-02-27T04:36:27.205Z,-3.68
2023-02-27T04:37:23.523Z,-3.62
2023-02-27T04:38:14.971Z,-3.57
2023-02-27T04:39:10.041Z,-3.58
2023-02-27T04:40:21.097Z,-3.49
2023-02-27T04:41:09.492Z,-3.46
2023-02-27T04:42:02.714Z,-3.49
2023-02-27T04:42:55.232Z,-3.71
2023-02-27T04:43:43.068Z,-3.60
2023-02-27T04:44:32.823Z,-3.53
2023-02-27T04:45:22.209Z,-3.49
2023-02-27T04:46:11.935Z,-3.44
2023-02-27T04:47:00.176Z,-3.47
2023-02-27T04:47:50.993Z,-3.49
2023-02-27T04:48:45.725Z,-3.49
2023-02-27T04:49:42.407Z,-3.46
2023-02-27T04:50:38.222Z,-3.45
2023-02-27T04:51:29.583Z,-3.37
2023-02-27T04:52:21.046Z,-3.29
2023-02-27T04:53:30.963Z,-3.32
2023-02-27T04:54:23.058Z,-3.36
2023-02-27T04:55:22.235Z,-3.39
2023-02-27T04:56:13.653Z,-3.33
2023-02-27T04:57:04.706Z,-3.39
2023-02-27T04:57:55.349Z,-3.49
2023-02-27T04:58:52.395Z,-3.44
2023-02-27T04:59:43.638Z,-3.56
2023-02-27T05:00:31.037Z,-3.65
2023-02-27T05:01:35.381Z,-3.50
2023-02-27T05:02:33.352Z,-3.52
2023-02-27T05:03:25.145Z,-3.41
2023-02-27T05:04:15.574Z,-3.44
2023-02-27T05:05:06.908Z,-3.54
2023-02-27T05:05:57.283Z,-3.46
2023-02-27T05:06:45.073Z,-3.39
2023-02-27T05:07:40.683Z,-3.43
2023-02-27T05:08:55.140Z,-3.41
2023-02-27T05:09:51.548Z,-3.31
2023-02-27T05:10:49.728Z,-3.26
2023-02-27T05:12:00.507Z,-3.27
2023-02-27T05:12:58.033Z,-3.20
2023-02-27T05:14:06.798Z,-3.22
2023-02-27T05:15:28.807Z,-3.17
2023-02-27T05:16:33.269Z,-3.11
2023-02-27T05:17:29.782Z,-3.07
2023-02-27T05:18:21.121Z,-3.06
2023-02-27T05:19:08.851Z,-3.11
2023-02-27T05:19:56.207Z,-2.99
2023-02-27T05:20:46.921Z,-3.08
2023-02-27T05:21:52.833Z,-2.98
2023-02-27T05:22:59.806Z,-3.06
2023-02-27T05:23:56.663Z,-3.09
2023-02-27T05:24:54.718Z,-3.00
2023-02-27T05:25:48.851Z,-2.93
2023-02-27T05:26:50.821Z,-2.90
2023-02-27T05:28:10.084Z,-2.99
2023-02-27T05:29:21.833Z,-2.85
2023-02-27T05:30:25.345Z,-2.77
2023-02-27T05:31:16.651Z,-2.69
2023-02-27T05:32:12.155Z,-2.86
2023-02-27T05:33:11.742Z,-2.91
2023-02-27T05:34:02.754Z,-2.78
2023-02-27T05:35:22.663Z,-2.71
2023-02-27T05:36:16.391Z,-2.72
2023-02-27T05:37:13.173Z,-2.95
2023-02-27T05:38:15.384Z,-2.89
2023-02-27T05:39:06.229Z,-2.88
2023-02-27T05:39:53.611Z,-2.83
2023-02-27T05:41:04.174Z,-2.80
2023-02-27T05:41:54.927Z,-2.65
2023-02-27T05:42:50.131Z,-2.64
2023-02-27T05:43:47.847Z,-2.70
2023-02-27T05:44:45.789Z,-2.80
2023-02-27T05:45:35.200Z,-2.61
2023-02-27T05:46:27.108Z,-2.73
2023-02-27T05:47:18.469Z,-2.66
2023-02-27T05:48:09.444Z,-2.67
2023-02-27T05:49:07.925Z,-2.60
2023-02-27T05:50:18.893Z,-2.60
2023-02-27T05:51:06.220Z,-2.54
2023-02-27T05:51:54.958Z,-2.52
2023-02-27T05:52:43.556Z,-2.55
2023-02-27T05:53:34.448Z,-2.78
2023-02-27T05:54:33.491Z,-2.57
2023-02-27T05:55:34.570Z,-2.50
2023-02-27T05:56:23.899Z,-2.48
2023-02-27T05:57:15.347Z,-2.41
2023-02-27T05:58:06.120Z,-2.31
2023-02-27T05:58:58.709Z,-2.34
2023-02-27T05:59:55.537Z,-2.32
2023-02-27T06:00:54.350Z,-2.28
2023-02-27T06:01:41.443Z,-2.25
2023-02-27T06:02:28.558Z,-2.26
2023-02-27T06:03:15.889Z,-2.29
2023-02-27T06:04:03.110Z,-2.32
2023-02-27T06:04:50.181Z,-2.29
2023-02-27T06:05:38.166Z,-2.16
2023-02-27T06:06:25.443Z,-2.17
2023-02-27T06:07:15.049Z,-2.12
2023-02-27T06:08:02.189Z,-2.19
2023-02-27T06:08:49.198Z,-2.30
2023-02-27T06:09:36.513Z,-2.29
2023-02-27T06:10:23.890Z,-2.13
2023-02-27T06:11:11.021Z,-2.03
2023-02-27T06:11:58.394Z,-1.99
2023-02-27T06:12:45.631Z,-1.90
2023-02-27T06:13:32.903Z,-1.95
2023-02-27T06:14:20.174Z,-2.01
2023-02-27T06:15:07.862Z,-1.96
2023-02-27T06:15:55.166Z,-1.80
2023-02-27T06:16:42.307Z,-1.82
2023-02-27T06:17:29.337Z,-1.79
2023-02-27T06:18:17.511Z,-1.78
2023-02-27T06:19:05.494Z,-1.70
2023-02-27T06:19:52.819Z,-1.60
2023-02-27T06:20:40.320Z,-1.57
2023-02-27T06:21:27.222Z,-1.56
2023-02-27T06:22:14.296Z,-1.52
2023-02-27T06:23:01.424Z,-1.51
2023-02-27T06:23:48.404Z,-1.47
2023-02-27T06:24:35.673Z,-1.41
2023-02-27T06:25:22.926Z,-1.38
2023-02-27T06:26:14.001Z,-1.44
2023-02-27T06:27:01.044Z,-1.41
2023-02-27T06:27:48.892Z,-1.31
2023-02-27T06:28:35.865Z,-1.21
2023-02-27T06:29:22.864Z,-1.19
2023-02-27T06:30:10.615Z,-1.23
2023-02-27T06:30:57.824Z,-1.27
2023-02-27T06:31:44.922Z,-1.17
2023-02-27T06:32:31.927Z,-1.12
2023-02-27T06:33:19.098Z,-1.08
2023-02-27T06:34:06.171Z,-1.20
2023-02-27T06:34:54.308Z,-1.24
2023-02-27T06:35:41.387Z,-1.14
2023-02-27T06:36:30.332Z,-1.19
2023-02-27T06:37:17.608Z,-1.25
2023-02-27T06:38:05.385Z,-1.24
2023-02-27T06:38:52.410Z,-1.15
2023-02-27T06:39:39.380Z,-1.03
2023-02-27T06:40:26.671Z,-0.97
2023-02-27T06:41:13.595Z,-0.90
2023-02-27T06:42:00.751Z,-0.90
2023-02-27T06:42:47.771Z,-1.04
2023-02-27T06:43:36.827Z,-1.08
2023-02-27T06:44:24.012Z,-0.97
2023-02-27T06:45:12.142Z,-0.79
2023-02-27T06:45:59.150Z,-0.68
2023-02-27T06:46:46.219Z,-0.61
2023-02-27T06:47:34.378Z,-0.67
2023-02-27T06:48:21.438Z,-0.69
2023-02-27T06:49:08.506Z,-0.67
2023-02-27T06:49:55.555Z,-0.59
2023-02-27T06:50:42.584Z,-0.62
2023-02-27T06:51:29.676Z,-0.54
2023-02-27T06:52:16.663Z,-0.35
2023-02-27T06:53:04.526Z,-0.35
2023-02-27T06:53:51.516Z,-0.35
2023-02-27T06:54:38.916Z,-0.44
2023-02-27T06:55:26.105Z,-0.38
2023-02-27T06:56:13.313Z,-0.32
2023-02-27T06:57:00.996Z,-0.35
2023-02-27T06:57:48.243Z,-0.27
2023-02-27T06:58:35.176Z,-0.19
2023-02-27T06:59:22.159Z,-0.23
2023-02-27T07:00:12.057Z,-0.20
2023-02-27T07:01:02.873Z,-0.19
2023-02-27T07:01:50.299Z,-0.14
2023-02-27T07:02:37.319Z,-0.15
2023-02-27T07:03:24.316Z,-0.01
2023-02-27T07:04:15.000Z,-0.04
2023-02-27T07:05:05.297Z,0.14
2023-02-27T07:05:55.328Z,0.11
2023-02-27T07:07:34.709Z,0.06
2023-02-27T07:07:49.699Z,0.13
2023-02-27T07:08:36.768Z,0.28
2023-02-27T07:09:23.790Z,0.28
2023-02-27T07:10:13.024Z,0.26
2023-02-27T07:11:00.036Z,0.30
2023-02-27T07:11:47.030Z,0.48
2023-02-27T07:12:33.957Z,0.58
2023-02-27T07:13:20.966Z,0.49
2023-02-27T07:14:08.106Z,0.53
2023-02-27T07:14:55.028Z,0.60
2023-02-27T07:15:42.159Z,0.71
2023-02-27T07:16:29.405Z,0.69
2023-02-27T07:17:16.527Z,0.68
2023-02-27T07:18:03.598Z,0.72
2023-02-27T07:18:50.612Z,0.87
2023-02-27T07:19:37.808Z,0.87
2023-02-27T07:20:25.569Z,0.90
2023-02-27T07:21:12.567Z,0.99
2023-02-27T07:21:59.915Z,1.18
2023-02-27T07:22:47.086Z,1.22
2023-02-27T07:23:34.045Z,1.10
2023-02-27T07:24:21.177Z,1.10
2023-02-27T07:25:09.139Z,1.12
2023-02-27T07:25:56.150Z,1.15
2023-02-27T07:26:43.258Z,1.27
2023-02-27T07:27:30.314Z,1.28
2023-02-27T07:28:19.671Z,1.44
2023-02-27T07:29:07.016Z,1.37
2023-02-27T07:29:54.207Z,1.41
2023-02-27T07:30:41.699Z,1.16
2023-02-27T07:31:29.084Z,1.22
2023-02-27T07:32:16.474Z,1.31
2023-02-27T07:33:03.469Z,1.28
2023-02-27T07:33:50.580Z,1.45
2023-02-27T07:34:37.680Z,1.42
2023-02-27T07:35:24.821Z,1.40
2023-02-27T07:36:11.907Z,1.49
2023-02-27T07:36:58.983Z,1.53
2023-02-27T07:37:47.805Z,1.57
2023-02-27T07:38:34.739Z,1.48
2023-02-27T07:39:21.912Z,1.53
2023-02-27T07:40:09.968Z,1.54
2023-02-27T07:40:58.915Z,1.42
2023-02-27T07:41:45.970Z,1.60
2023-02-27T07:42:32.989Z,1.55
2023-02-27T07:43:19.990Z,1.65
2023-02-27T07:44:08.920Z,1.64
2023-02-27T07:44:55.986Z,1.57
2023-02-27T07:45:43.060Z,1.55
2023-02-27T07:46:30.500Z,1.39
2023-02-27T07:47:18.032Z,1.43
2023-02-27T07:48:05.279Z,1.51
2023-02-27T07:48:52.201Z,1.53
2023-02-27T07:49:39.312Z,1.58
2023-02-27T07:50:26.338Z,1.71
2023-02-27T07:51:13.492Z,1.66
2023-02-27T07:52:00.630Z,1.75
2023-02-27T07:52:47.670Z,1.80
2023-02-27T07:53:34.721Z,1.73
2023-02-27T07:54:21.621Z,1.70
2023-02-27T07:55:10.663Z,1.68
2023-02-27T07:55:57.896Z,1.48
2023-02-27T07:56:44.884Z,1.50
2023-02-27T07:57:32.056Z,1.48
2023-02-27T07:58:19.050Z,1.53
2023-02-27T07:59:06.016Z,1.57
2023-02-27T07:59:53.000Z,1.67
2023-02-27T08:00:39.906Z,1.68
2023-02-27T08:01:27.058Z,1.67
2023-02-27T08:02:14.374Z,1.66
2023-02-27T08:03:01.513Z,1.58
2023-02-27T08:03:48.648Z,1.40
2023-02-27T08:04:35.675Z,1.43
2023-02-27T08:05:22.722Z,1.51
2023-02-27T08:06:09.791Z,1.49
2023-02-27T08:06:57.611Z,1.37
2023-02-27T08:07:44.533Z,1.28
2023-02-27T08:08:31.442Z,1.48
2023-02-27T08:09:18.513Z,1.50
2023-02-27T08:10:06.192Z,1.51
2023-02-27T08:10:53.142Z,1.58
2023-02-27T08:11:40.093Z,1.47
2023-02-27T08:12:27.057Z,1.47
2023-02-27T08:13:14.764Z,1.50
2023-02-27T08:14:02.388Z,1.56
2023-02-27T08:14:49.746Z,1.56
2023-02-27T08:15:36.662Z,1.49
2023-02-27T08:16:23.647Z,1.66
2023-02-27T08:17:10.570Z,1.71
2023-02-27T08:17:57.706Z,1.70
2023-02-27T08:18:44.708Z,1.69
2023-02-27T08:19:31.698Z,1.60
2023-02-27T08:20:22.796Z,1.74
2023-02-27T08:21:10.132Z,1.79
2023-02-27T08:21:57.051Z,1.59
2023-02-27T08:22:44.037Z,1.48
2023-02-27T08:23:34.507Z,1.58
2023-02-27T08:24:21.860Z,1.59
2023-02-27T08:25:11.411Z,1.62
2023-02-27T08:25:58.654Z,1.74
2023-02-27T08:26:45.594Z,1.72
2023-02-27T08:27:32.611Z,1.79
2023-02-27T08:28:19.565Z,1.55
2023-02-27T08:29:06.540Z,1.67
2023-02-27T08:29:53.473Z,1.71
2023-02-27T08:30:40.621Z,1.76
2023-02-27T08:31:28.002Z,1.79
2023-02-27T08:32:14.959Z,1.89
2023-02-27T08:33:02.046Z,1.95
2023-02-27T08:33:58.073Z,2.10
2023-02-27T08:34:54.855Z,1.98
2023-02-27T08:35:41.794Z,1.94
2023-02-27T08:36:28.962Z,1.92
2023-02-27T08:37:16.112Z,1.90
2023-02-27T08:38:03.058Z,1.88
2023-02-27T08:38:49.991Z,2.07
2023-02-27T08:39:36.950Z,2.18
2023-02-27T08:40:23.890Z,2.23
2023-02-27T08:41:10.870Z,2.19
2023-02-27T08:41:57.841Z,2.30
2023-02-27T08:42:44.762Z,2.25
2023-02-27T08:43:31.651Z,2.10
2023-02-27T08:44:19.672Z,2.20
2023-02-27T08:45:09.147Z,2.27
2023-02-27T08:45:56.058Z,2.29
2023-02-27T08:46:42.938Z,2.25
2023-02-27T08:47:30.048Z,2.22
2023-02-27T08:48:18.670Z,2.32
2023-02-27T08:49:05.563Z,2.30
2023-02-27T08:49:52.488Z,2.37
2023-02-27T08:50:39.398Z,2.37
2023-02-27T08:51:26.727Z,2.31
2023-02-27T08:52:13.818Z,2.24
2023-02-27T08:53:00.721Z,2.22
2023-02-27T08:53:47.652Z,2.20
2023-02-27T08:54:34.616Z,2.24
2023-02-27T08:55:21.801Z,2.47
2023-02-27T08:56:09.025Z,2.53
2023-02-27T08:56:56.092Z,2.72
2023-02-27T08:57:43.010Z,2.79
2023-02-27T08:58:29.986Z,2.62
2023-02-27T08:59:17.025Z,2.42
2023-02-27T09:00:06.931Z,2.38
2023-02-27T09:00:56.052Z,2.60
2023-02-27T09:01:43.577Z,2.67
2023-02-27T09:02:31.162Z,2.65
2023-02-27T09:03:18.236Z,2.73
2023-02-27T09:04:06.848Z,2.77
2023-02-27T09:04:53.935Z,2.81
2023-02-27T09:05:42.197Z,2.79
2023-02-27T09:06:29.587Z,2.62
2023-02-27T09:07:16.666Z,2.62
2023-02-27T09:08:04.732Z,2.70
2023-02-27T09:08:51.660Z,2.79
2023-02-27T09:09:38.556Z,2.85
2023-02-27T09:10:25.529Z,2.60
2023-02-27T09:11:12.449Z,2.66
2023-02-27T09:11:59.387Z,2.74
2023-02-27T09:12:46.328Z,2.75
2023-02-27T09:13:33.374Z,2.73
2023-02-27T09:14:20.529Z,2.83
2023-02-27T09:15:08.138Z,2.76
2023-02-27T09:15:55.081Z,2.81
2023-02-27T09:16:42.195Z,2.79
2023-02-27T09:17:29.187Z,2.76
2023-02-27T09:18:16.120Z,2.83
2023-02-27T09:19:03.168Z,2.75
2023-02-27T09:19:51.516Z,2.71
2023-02-27T09:20:40.430Z,2.64
2023-02-27T09:21:29.255Z,2.47
2023-02-27T09:22:16.148Z,2.57
2023-02-27T09:23:06.161Z,2.71
2023-02-27T09:23:53.237Z,2.61
2023-02-27T09:24:40.108Z,2.62
2023-02-27T09:25:27.942Z,2.53
2023-02-27T09:26:16.317Z,2.66
2023-02-27T09:27:03.314Z,2.76
2023-02-27T09:27:50.249Z,2.86
2023-02-27T09:28:37.887Z,2.96
2023-02-27T09:29:25.970Z,3.06
2023-02-27T09:30:13.297Z,3.17
2023-02-27T09:31:06.088Z,3.14
2023-02-27T09:31:53.571Z,3.20
2023-02-27T09:32:40.557Z,3.25
2023-02-27T09:33:29.294Z,3.22
2023-02-27T09:34:16.497Z,2.95
2023-02-27T09:35:03.468Z,2.82
2023-02-27T09:35:50.472Z,2.78
2023-02-27T09:36:37.523Z,2.84
2023-02-27T09:37:25.285Z,2.97
2023-02-27T09:38:12.528Z,2.99
2023-02-27T09:39:00.016Z,2.85
2023-02-27T09:39:47.429Z,3.11
2023-02-27T09:40:40.245Z,3.17
2023-02-27T09:42:07.239Z,3.23
2023-02-27T09:42:58.401Z,3.27
2023-02-27T09:43:48.365Z,3.16
2023-02-27T09:44:47.000Z,3.30
2023-02-27T09:45:39.548Z,3.28
2023-02-27T09:46:26.784Z,3.32
2023-02-27T09:47:26.948Z,3.27
2023-02-27T09:48:23.738Z,3.46
2023-02-27T09:49:13.159Z,3.68
2023-02-27T09:50:14.139Z,3.57
2023-02-27T09:51:01.858Z,3.68
2023-02-27T09:51:53.366Z,3.81
2023-02-27T09:52:40.402Z,3.79
2023-02-27T09:53:41.297Z,3.92
2023-02-27T09:54:29.488Z,3.85
2023-02-27T09:55:23.323Z,3.81
2023-02-27T09:56:15.998Z,3.80
2023-02-27T09:57:05.752Z,3.86
2023-02-27T09:58:13.009Z,3.56
2023-02-27T09:59:11.888Z,3.57
2023-02-27T10:00:05.271Z,3.53
2023-02-27T10:00:56.962Z,3.46
2023-02-27T10:02:09.385Z,3.54
2023-02-27T10:03:33.751Z,3.58
2023-02-27T10:04:29.756Z,3.57
2023-02-27T10:05:31.848Z,3.62
2023-02-27T10:06:43.900Z,3.60
2023-02-27T10:07:39.912Z,3.42
2023-02-27T10:08:34.322Z,3.44
2023-02-27T10:09:39.933Z,3.41
2023-02-27T10:10:55.290Z,3.56
2023-02-27T10:11:52.039Z,3.47
2023-02-27T10:12:53.740Z,3.50
2023-02-27T10:13:48.799Z,3.48
2023-02-27T10:14:52.477Z,3.43
2023-02-27T10:15:43.121Z,3.39
2023-02-27T10:16:30.373Z,3.27
2023-02-27T10:17:31.223Z,3.36
2023-02-27T10:18:30.908Z,3.45
2023-02-27T10:19:27.816Z,3.47
2023-02-27T10:20:23.132Z,3.45
2023-02-27T10:21:15.854Z,3.58
2023-02-27T10:22:06.432Z,3.63
2023-02-27T10:22:54.791Z,3.71
2023-02-27T10:24:07.786Z,3.60
2023-02-27T10:25:03.270Z,3.67
2023-02-27T10:25:51.092Z,3.71
2023-02-27T10:26:41.385Z,3.62
2023-02-27T10:27:28.336Z,3.64
2023-02-27T10:28:18.783Z,3.50
2023-02-27T10:29:19.551Z,3.39
2023-02-27T10:30:28.472Z,3.53
2023-02-27T10:31:22.470Z,3.60
2023-02-27T10:32:22.064Z,3.20
2023-02-27T10:33:21.953Z,3.38
2023-02-27T10:34:13.423Z,3.28
2023-02-27T10:35:47.721Z,3.14
2023-02-27T10:36:34.999Z,3.35
2023-02-27T10:37:24.612Z,3.48
2023-02-27T10:38:27.287Z,3.55
2023-02-27T10:39:18.095Z,3.73
2023-02-27T10:40:06.622Z,3.81
2023-02-27T10:40:55.668Z,3.96
2023-02-27T10:41:43.996Z,4.05
2023-02-27T10:42:35.404Z,4.11
2023-02-27T10:43:23.054Z,4.13
2023-02-27T10:44:11.727Z,4.07
2023-02-27T10:44:58.677Z,4.07
2023-02-27T10:45:45.734Z,4.17
2023-02-27T10:46:35.534Z,4.16
2023-02-27T10:47:26.429Z,4.14
2023-02-27T10:48:14.879Z,4.05
2023-02-27T10:49:05.714Z,3.85
2023-02-27T10:49:55.889Z,4.01
2023-02-27T10:50:53.202Z,3.93
2023-02-27T10:51:40.192Z,3.87
2023-02-27T10:52:27.562Z,3.92
2023-02-27T10:53:23.382Z,4.02
2023-02-27T10:54:19.046Z,3.95
2023-02-27T10:55:22.089Z,3.97
2023-02-27T10:56:16.377Z,4.22
2023-02-27T10:57:06.950Z,4.35
2023-02-27T10:57:56.097Z,4.18
2023-02-27T10:58:43.053Z,3.91
2023-02-27T10:59:39.584Z,3.84
2023-02-27T11:00:44.254Z,3.97
2023-02-27T11:01:45.671Z,4.09
2023-02-27T11:02:37.576Z,4.13
2023-02-27T11:03:29.043Z,4.08
2023-02-27T11:04:24.876Z,4.08
2023-02-27T11:05:33.469Z,4.24
2023-02-27T11:06:24.030Z,4.56
2023-02-27T11:07:12.525Z,4.35
2023-02-27T11:08:23.779Z,4.24
2023-02-27T11:09:25.691Z,4.37
2023-02-27T11:10:12.557Z,4.32
2023-02-27T11:11:11.690Z,4.26
2023-02-27T11:12:24.634Z,4.02
2023-02-27T11:13:23.585Z,3.97
2023-02-27T11:14:31.601Z,4.24
2023-02-27T11:15:18.624Z,4.39
2023-02-27T11:16:09.692Z,4.46
2023-02-27T11:17:06.694Z,4.57
2023-02-27T11:17:55.258Z,4.40
2023-02-27T11:18:44.636Z,4.24
2023-02-27T11:19:35.200Z,4.09
2023-02-27T11:20:40.922Z,4.10